logo tempoitalia

Diretta Meteo Bardenas Reales, Spagnalunedì 31 agosto ore 07:00

Mappa
Sereno 18 °C Sereno 24 Ore: T.min 15 T.max 34
Ponente Ovest/Nord-Ovest Km/h 29.6 Punto di rugiada: 12 °C Umidità: 67% Visibilità: 10 Km
Il sole sorge alle: 07:30 Il sole tramonta alle: 20:41
31 Agosto 2026 07:00 tempo osservato: Sereno Sereno 18 67 1020 vento: Nord O/NO 29.6
31 Agosto 2026 06:30 tempo osservato: Sereno Sereno 18 67 1020 vento: Nord O/NO 27.8
31 Agosto 2026 06:00 tempo osservato: Sereno Sereno 18 67 1020 vento: Nord O/NO 27.8
31 Agosto 2026 05:30 tempo osservato: Sereno Sereno 19 63 1020 vento: Nord O/NO 27.8
31 Agosto 2026 05:00 tempo osservato: Sereno Sereno 19 63 1020 vento: Nord O/NO 27.8
31 Agosto 2026 04:30 tempo osservato: Sereno Sereno 19 68 1020 vento: Nord O/NO 25.9
31 Agosto 2026 04:00 tempo osservato: Sereno Sereno 19 68 1020 vento: Nord O/NO 24
31 Agosto 2026 03:30 tempo osservato: Sereno Sereno 19 68 1020 vento: Nord O/NO 25.9
31 Agosto 2026 03:00 tempo osservato: Sereno Sereno 19 72 1020 vento: Nord O/NO 24
31 Agosto 2026 02:30 tempo osservato: Sereno Sereno 19 72 1020 vento: Nord NO 20.3
31 Agosto 2026 02:00 tempo osservato: Sereno Sereno 19 72 1020 vento: Nord NO 24
31 Agosto 2026 01:30 tempo osservato: Sereno Sereno 20 68 1019 vento: Nord NO 27.8
31 Agosto 2026 01:00 tempo osservato: Sereno Sereno 20 72 1019 vento: Nord NO 25.9
31 Agosto 2026 00:30 tempo osservato: Sereno Sereno 20 72 1019 vento: Nord NO 20.3
31 Agosto 2026 00:00 tempo osservato: Sereno Sereno 21 68 1019 vento: Nord NO 22.2
30 Agosto 2026 23:30 tempo osservato: Sereno Sereno 21 68 1018 vento: Nord NO 22.2
30 Agosto 2026 23:00 tempo osservato: Sereno Sereno 21 73 1018 vento: Nord NO 18.5
30 Agosto 2026 22:30 tempo osservato: Sereno Sereno 22 64 1018 vento: Nord NO 16.7
30 Agosto 2026 22:00 tempo osservato: Sereno Sereno 23 64 1017 vento: Nord NO 20.3
30 Agosto 2026 21:30 tempo osservato: Sereno Sereno 24 60 1016 vento: Nord NO 24
30 Agosto 2026 21:00 tempo osservato: Sereno Sereno 27 50 1015 vento: Nord N/NO 14.8
30 Agosto 2026 20:30 tempo osservato: Sereno Sereno 29 45 1014 vento: Nord N/NO 20.3
30 Agosto 2026 20:00 tempo osservato: Sereno Sereno 31 37 1014 vento: Nord N/NO 16.7
30 Agosto 2026 19:30 tempo osservato: Sereno Sereno 33 26 1014 vento: Nord NO 13
30 Agosto 2026 19:00 tempo osservato: Sereno Sereno 33 22 1014 vento: Nord N 1.8
30 Agosto 2026 18:30 tempo osservato: Sereno Sereno 34 21 1014 vento: Nord N 5.5
30 Agosto 2026 18:00 tempo osservato: Sereno Sereno 34 21 1014 vento: Nord E 7.4
30 Agosto 2026 17:30 tempo osservato: Sereno Sereno 34 20 1014 vento: Nord N 11.1
30 Agosto 2026 17:00 tempo osservato: Sereno Sereno 34 20 1014 vento: Nord E 14.8
30 Agosto 2026 16:30 tempo osservato: Sereno Sereno 33 24 1014 vento: Nord E 18.5
30 Agosto 2026 16:00 tempo osservato: Sereno Sereno 33 22 1015 vento: Nord N 7.4
30 Agosto 2026 15:30 tempo osservato: Sereno Sereno 33 26 1015 vento: Nord E/SE 14.8
30 Agosto 2026 15:00 tempo osservato: Sereno Sereno 32 29 1016 vento: Nord E 16.7
30 Agosto 2026 14:30 tempo osservato: Sereno Sereno 31 33 1016 vento: Nord E 16.7
30 Agosto 2026 14:00 tempo osservato: Sereno Sereno 30 35 1017 vento: Nord E/SE 16.7
30 Agosto 2026 13:30 tempo osservato: Sereno Sereno 30 37 1017 vento: Nord E/SE 22.2
30 Agosto 2026 13:00 tempo osservato: Sereno Sereno 29 39 1017 vento: Nord E/SE 20.3
30 Agosto 2026 12:30 tempo osservato: Sereno Sereno 27 44 1018 vento: Nord E/SE 13
30 Agosto 2026 12:00 tempo osservato: Sereno Sereno 26 44 1018 vento: Nord N 5.5
30 Agosto 2026 11:30 tempo osservato: Sereno Sereno 24 50 1018 vento: Nord N 5.5
30 Agosto 2026 11:00 tempo osservato: Sereno Sereno 23 53 1018 vento: Nord SE 7.4
30 Agosto 2026 10:30 tempo osservato: Sereno Sereno 23 53 1018 vento: Nord N 3.7
30 Agosto 2026 10:00 tempo osservato: Sereno Sereno 21 56 1018 vento: Nord N 3.7
30 Agosto 2026 09:30 tempo osservato: Sereno Sereno 20 59 1018 vento: Nord N 5.5
30 Agosto 2026 09:00 tempo osservato: Sereno Sereno 19 72 1018 vento: Nord N 0
30 Agosto 2026 08:30 tempo osservato: Sereno Sereno 19 72 1018 vento: Nord N 0
30 Agosto 2026 08:00 tempo osservato: Sereno Sereno 15 82 1018 vento: Nord N 1.8